• Join FlightAware (Why Join?)
  • Login
  • US Flag 
02:47AM EDT


 

Airport Tracker/Info


-or-


 

Live Flight TrackerFlight Track Log ✈ SWA1903 ✈ 15-May-2013 ✈ KPHX - KSLC

Flight Track Log - Related Links

Times and Time Zones

All times are in EDT time to prevent confusion due to time zone crossing. See the SWA1903 flight status page for this flight to view local times or setup timezone preferences in your user account.

Time Position Orientation Groundspeed Altitude Reporting Facility
EDT Latitude Longitude Course Direction KTS MPH feet Rate Location/Type
02:59PM 33.4333 -112.0500 270° West 162 186 2,700  Level Phoenix TRACON
03:00PM 33.4333 -112.1167 270° West 219 252 4,200 2,040 Climbing Phoenix TRACON
03:01PM 33.4372 -112.1625 276° West 225 259 6,300 2,880 Climbing Albuquerque Center
03:02PM 33.4997 -112.1786 348° North 286 329 9,300 2,580 Climbing Albuquerque Center
03:03PM 33.5878 -112.1503 15° North 330 380 11,700 2,760 Climbing Albuquerque Center
03:04PM 33.6753 -112.0836 32° Northeast 374 430 15,000 3,060 Climbing Albuquerque Center
03:05PM 33.7606 -112.0031 38° Northeast 388 447 18,000 2,880 Climbing Albuquerque Center
03:06PM 33.8692 -111.9019 38° Northeast 403 464 21,000 2,160 Climbing Albuquerque Center
03:07PM 33.9608 -111.8206 36° Northeast 411 473 22,500 1,740 Climbing Albuquerque Center
03:08PM 34.0758 -111.8350 354° North 418 481 24,600 2,040 Climbing Albuquerque Center
03:09PM 34.2011 -111.8544 353° North 423 487 26,800 1,920 Climbing Albuquerque Center
03:10PM 34.3203 -111.8739 352° North 439 505 28,600 2,040 Climbing Albuquerque Center
03:11PM 34.4431 -111.8936 352° North 444 511 31,100 2,160 Climbing Albuquerque Center
03:12PM 34.5614 -111.9136 352° North 435 501 33,100 1,380 Climbing Albuquerque Center
03:13PM 34.6792 -111.9333 352° North 429 494 34,000 420 Climbing Albuquerque Center
03:14PM 34.8003 -111.9539 352° North 431 496 34,000  Level Albuquerque Center
03:15PM 34.9181 -111.9722 353° North 432 497 34,000  Level Albuquerque Center
03:16PM 35.0575 -111.9936 353° North 428 493 34,000  Level Albuquerque Center
03:17PM 35.1708 -112.0144 351° North 422 486 34,000  Level Albuquerque Center
03:18PM 35.2878 -112.0272 355° North 424 488 34,000  Level Albuquerque Center
03:19PM 35.4058 -112.0394 355° North 428 493 34,000  Level Albuquerque Center
03:20PM 35.5231 -112.0533 354° North 427 491 34,000  Level Albuquerque Center
03:21PM 35.6633 -112.0689 355° North 426 490 34,000  Level Albuquerque Center
03:22PM 35.7569 -112.0789 355° North 426 490 34,000  Level Los Angeles Center
03:23PM 35.8744 -112.0911 355° North 426 490 34,000  Level Los Angeles Center
03:24PM 35.9919 -112.1039 355° North 427 491 34,000  Level Los Angeles Center
03:25PM 36.1094 -112.1181 354° North 427 491 34,000  Level Los Angeles Center
03:26PM 36.2369 -112.1322 355° North 426 490 34,000  Level Los Angeles Center
03:27PM 36.3778 -112.1489 355° North 424 488 34,000  Level Los Angeles Center
03:28PM 36.4956 -112.1619 355° North 425 489 34,000  Level Los Angeles Center
03:29PM 36.6117 -112.1764 354° North 421 484 34,000  Level Los Angeles Center
03:30PM 36.7289 -112.1894 355° North 423 487 34,000  Level Los Angeles Center
03:31PM 36.8444 -112.2031 355° North 419 482 34,000  Level Los Angeles Center
03:32PM 36.9589 -112.2161 355° North 415 478 34,000  Level Los Angeles Center
03:34PM 37.0972 -112.2325 355° North 417 480 34,000  Level Los Angeles Center
03:35PM 37.2103 -112.2458 355° North 411 473 34,000  Level Los Angeles Center
03:36PM 37.3244 -112.2600 354° North 414 476 34,000  Level Los Angeles Center
03:36PM 37.4172 -112.2714 354° North 419 482 34,000  Level Salt Lake Center
03:37PM 37.5344 -112.2853 355° North 423 487 34,000 -420 Level Salt Lake Center
03:38PM 37.6506 -112.3003 354° North 424 488 33,200 -840 Descending Salt Lake Center
03:39PM 37.7658 -112.3133 355° North 421 484 32,300 -600 Descending Salt Lake Center
03:40PM 37.9050 -112.3314 354° North 421 484 32,000 -180 Descending Salt Lake Center
03:41PM 38.0217 -112.3472 354° North 423 487 32,000  Level Salt Lake Center
03:43PM 38.1381 -112.3617 354° North 422 486 32,000  Level Salt Lake Center
03:44PM 38.2525 -112.3753 355° North 417 480 32,000  Level Salt Lake Center
03:45PM 38.3700 -112.3903 354° North 423 487 32,000  Level Salt Lake Center
03:46PM 38.4878 -112.4044 355° North 426 490 32,000  Level Salt Lake Center
03:47PM 38.6319 -112.4222 354° North 433 498 32,000  Level Salt Lake Center
03:48PM 38.7511 -112.4378 354° North 431 496 32,000  Level Salt Lake Center
03:49PM 38.8700 -112.4508 355° North 430 495 32,000  Level Salt Lake Center
03:50PM 38.9869 -112.4661 354° North 424 488 32,000  Level Salt Lake Center
03:51PM 39.1022 -112.4533 North 415 478 32,000  Level Salt Lake Center
03:52PM 39.2167 -112.4278 10° North 415 478 32,000 -780 Level Salt Lake Center
03:53PM 39.3383 -112.4042 North 426 490 30,500 -1,980 Descending Salt Lake Center
03:54PM 39.4547 -112.3794 North 423 487 28,000 -2,580 Descending Salt Lake Center
03:55PM 39.5708 -112.3564 North 424 488 25,300 -2,820 Descending Salt Lake Center
03:56PM 39.7008 -112.2906 21° North 414 476 22,200 -2,580 Descending Salt Lake Center
03:57PM 39.8044 -112.2250 26° Northeast 416 479 20,100 -1,860 Descending Salt Lake Center
03:57PM 39.8561 -112.2031 18° North 393 452 19,400 -1,380 Descending Salt Lake Center
03:58PM 39.8978 -112.1658 34° Northeast 376 433 18,700 -1,620 Descending Salt Lake Center
03:58PM 39.9267 -112.1572 13° North 362 417 18,100 -1,980 Descending Salt Lake Center
03:59PM 39.9864 -112.1111 31° Northeast 356 410 16,700 -2,100 Descending Salt Lake Center
03:59PM 40.0150 -112.1025 13° North 353 406 16,000 -1,620 Descending Salt Lake Center
04:00PM 40.0719 -112.0586 31° Northeast 342 394 15,100 -900 Descending Salt Lake Center
04:00PM 40.1072 -112.0464 15° North 333 383 15,000 -240 Descending Salt Lake Center
04:01PM 40.1508 -112.0117 31° Northeast 314 361 14,900 -660 Descending Salt Lake Center
04:02PM 40.2142 -111.9544 35° Northeast 285 328 13,900 -1,380 Descending Salt Lake Center
04:03PM 40.2739 -111.8556 52° Northeast 259 298 11,900 -1,620 Descending Salt Lake Center
04:04PM 40.3239 -111.8522 North 236 272 10,700 -1,140 Descending Salt Lake Center
04:05PM 40.3833 -111.8892 335° Northwest 235 270 9,900 -480 Descending Salt Lake Center
04:06PM 40.4431 -111.9242 336° Northwest 234 269 9,800 -540 Descending Salt Lake Center
04:07PM 40.5083 -111.9317 355° North 234 269 8,800 -1,020 Descending Salt Lake Center
04:08PM 40.5725 -111.9392 355° North 233 268 7,800 -1,020 Descending Salt Lake Center
04:09PM 40.6503 -111.9506 354° North 219 252 6,600 -960 Descending Salt Lake Center
04:10PM 40.6903 -111.9567 353° North 197 227 6,000 -900 Descending Salt Lake Center
04:11PM 40.7422 -111.9594 358° North 160 184 4,900 -900 Descending Salt Lake Center
04:12PM 40.7831 -111.9625 357° North 149 171 4,100 -780 Descending Salt Lake Center
04:14PM 40.7833 -111.9667 North  Level FlightAware Approximate